createdAt,value
2019-05-01T00:01:11.711Z,31.30
2019-05-01T00:03:48.548Z,30.10
2019-05-01T00:06:16.523Z,30.43
2019-05-01T00:08:42.491Z,31.53
2019-05-01T00:11:08.658Z,31.00
2019-05-01T00:13:34.640Z,32.97
2019-05-01T00:16:00.720Z,30.30
2019-05-01T00:18:26.824Z,30.00
2019-05-01T00:20:53.045Z,29.77
2019-05-01T00:23:19.015Z,29.67
2019-05-01T00:25:45.051Z,30.50
2019-05-01T00:28:11.309Z,31.00
2019-05-01T00:30:37.797Z,31.90
2019-05-01T00:33:03.912Z,30.67
2019-05-01T00:35:29.988Z,30.23
2019-05-01T00:37:56.019Z,32.60
2019-05-01T00:40:22.081Z,32.10
2019-05-01T00:42:48.271Z,32.30
2019-05-01T00:45:14.405Z,30.70
2019-05-01T00:47:40.476Z,33.67
2019-05-01T00:50:07.072Z,31.70
2019-05-01T00:52:33.187Z,31.70
2019-05-01T00:55:17.614Z,31.47
2019-05-01T00:57:48.304Z,32.00
2019-05-01T01:00:28.307Z,30.90
2019-05-01T01:02:54.404Z,34.13
2019-05-01T01:05:20.375Z,31.60
2019-05-01T01:07:46.410Z,31.37
2019-05-01T01:10:12.601Z,32.33
2019-05-01T01:12:38.633Z,32.07
2019-05-01T01:15:04.996Z,32.63
2019-05-01T01:17:31.040Z,33.07
2019-05-01T01:19:57.039Z,34.70
2019-05-01T01:22:23.024Z,33.93
2019-05-01T01:24:49.235Z,34.20
2019-05-01T01:27:15.239Z,33.33
2019-05-01T01:29:41.254Z,31.17
2019-05-01T01:32:07.243Z,31.43
2019-05-01T01:34:33.350Z,32.47
2019-05-01T01:36:59.359Z,34.27
2019-05-01T01:39:25.579Z,33.67
2019-05-01T01:41:51.808Z,32.80
2019-05-01T01:44:34.587Z,33.97
2019-05-01T01:47:01.295Z,34.73
2019-05-01T01:49:27.380Z,34.07
2019-05-01T01:51:53.786Z,36.20
2019-05-01T01:54:20.190Z,36.47
2019-05-01T01:56:46.267Z,36.40
2019-05-01T01:59:12.482Z,33.70
2019-05-01T02:01:40.347Z,36.27
2019-05-01T02:04:08.224Z,33.50
2019-05-01T02:06:34.324Z,34.93
2019-05-01T02:09:00.289Z,38.07
2019-05-01T02:11:26.467Z,32.70
2019-05-01T02:13:54.204Z,36.80
2019-05-01T02:16:20.156Z,34.70
2019-05-01T02:18:46.156Z,38.90
2019-05-01T02:21:12.175Z,36.40
2019-05-01T02:23:38.206Z,37.30
2019-05-01T02:26:05.287Z,39.10
2019-05-01T02:28:33.167Z,34.87
2019-05-01T02:31:27.434Z,33.37
2019-05-01T02:33:39.633Z,32.83
2019-05-01T02:36:06.407Z,32.60
2019-05-01T02:38:35.800Z,32.63
2019-05-01T02:41:02.936Z,32.13
2019-05-01T02:43:32.842Z,32.50
2019-05-01T02:46:01.330Z,33.40
2019-05-01T02:48:30.904Z,33.70
2019-05-01T02:51:00.036Z,31.10
2019-05-01T02:53:26.551Z,31.80
2019-05-01T02:56:14.193Z,34.40
2019-05-01T02:58:43.072Z,32.03
2019-05-01T03:01:09.392Z,32.47
2019-05-01T03:03:35.481Z,32.67
2019-05-01T03:06:01.563Z,31.83
2019-05-01T03:08:27.765Z,30.57
2019-05-01T03:10:53.783Z,30.53
2019-05-01T03:13:20.341Z,30.20
2019-05-01T03:15:46.652Z,33.00
2019-05-01T03:18:23.291Z,31.80
2019-05-01T03:21:06.160Z,32.97
2019-05-01T03:23:37.338Z,30.77
2019-05-01T03:26:03.436Z,32.50
2019-05-01T03:28:30.087Z,30.13
2019-05-01T03:30:56.156Z,30.20
2019-05-01T03:33:22.545Z,30.87
2019-05-01T03:35:48.955Z,31.63
2019-05-01T03:38:15.800Z,30.90
2019-05-01T03:40:41.890Z,31.73
2019-05-01T03:43:08.373Z,31.40
2019-05-01T03:45:34.667Z,32.17
2019-05-01T03:48:01.527Z,31.60
2019-05-01T03:50:27.740Z,32.80
2019-05-01T03:52:54.027Z,33.03
2019-05-01T03:55:20.329Z,33.40
2019-05-01T03:57:46.353Z,33.10
2019-05-01T04:00:14.829Z,32.40
2019-05-01T04:02:48.884Z,33.03
2019-05-01T04:05:15.150Z,34.47
2019-05-01T04:07:41.132Z,33.97
2019-05-01T04:10:07.357Z,34.67
2019-05-01T04:12:33.514Z,31.27
2019-05-01T04:14:59.623Z,34.23
2019-05-01T04:17:30.860Z,33.83
2019-05-01T04:19:57.059Z,34.40
2019-05-01T04:22:23.020Z,30.67
2019-05-01T04:24:49.107Z,32.57
2019-05-01T04:27:17.003Z,29.27
2019-05-01T04:29:47.899Z,30.37
2019-05-01T04:32:18.790Z,31.17
2019-05-01T04:35:02.888Z,29.83
2019-05-01T04:37:28.966Z,32.10
2019-05-01T04:39:55.474Z,28.60
2019-05-01T04:42:21.484Z,30.37
2019-05-01T04:44:47.856Z,31.50
2019-05-01T04:47:13.931Z,32.27
2019-05-01T04:49:40.016Z,33.83
2019-05-01T04:52:06.096Z,32.13
2019-05-01T04:54:32.090Z,31.77
2019-05-01T04:56:58.169Z,33.47
2019-05-01T04:59:24.332Z,32.50
2019-05-01T05:01:52.624Z,30.53
2019-05-01T05:04:20.127Z,30.70
2019-05-01T05:06:46.408Z,29.43
2019-05-01T05:09:12.712Z,31.70
2019-05-01T05:11:52.563Z,28.20
2019-05-01T05:14:20.554Z,31.60
2019-05-01T05:16:48.920Z,32.20
2019-05-01T05:19:15.218Z,28.90
2019-05-01T05:21:41.646Z,30.27
2019-05-01T05:24:07.787Z,30.17
2019-05-01T05:26:33.866Z,31.23
2019-05-01T05:29:00.031Z,28.73
2019-05-01T05:31:26.602Z,27.93
2019-05-01T05:33:55.108Z,28.93
2019-05-01T05:36:23.579Z,28.60
2019-05-01T05:38:54.842Z,28.27
2019-05-01T05:41:21.933Z,29.87
2019-05-01T05:43:47.937Z,28.67
2019-05-01T05:46:14.107Z,29.70
2019-05-01T05:48:40.302Z,30.80
2019-05-01T05:51:11.692Z,29.33
2019-05-01T05:53:49.751Z,29.47
2019-05-01T05:56:18.860Z,26.97
2019-05-01T05:58:49.636Z,31.37
2019-05-01T06:01:21.811Z,30.20
2019-05-01T06:03:53.510Z,30.70
2019-05-01T06:06:28.233Z,29.87
2019-05-01T06:08:56.243Z,30.10
2019-05-01T06:11:33.944Z,30.63
2019-05-01T06:14:00.516Z,30.70
2019-05-01T06:16:51.924Z,28.43
2019-05-01T06:19:26.265Z,29.23
2019-05-01T06:22:11.845Z,30.20
2019-05-01T06:24:43.113Z,30.03
2019-05-01T06:27:13.696Z,32.00
2019-05-01T06:29:38.211Z,29.57
2019-05-01T06:32:04.623Z,27.97
2019-05-01T06:34:30.729Z,29.33
2019-05-01T06:36:56.894Z,27.60
2019-05-01T06:39:23.151Z,29.03
2019-05-01T06:41:49.944Z,27.80
2019-05-01T06:44:20.632Z,29.63
2019-05-01T06:46:48.860Z,29.37
2019-05-01T06:49:17.367Z,30.90
2019-05-01T06:51:48.113Z,27.30
2019-05-01T06:54:16.429Z,29.43
2019-05-01T06:56:43.151Z,29.43
2019-05-01T06:59:10.351Z,30.70
2019-05-01T07:01:36.646Z,28.87
2019-05-01T07:04:03.998Z,29.83
2019-05-01T07:06:31.033Z,28.67
2019-05-01T07:08:59.272Z,27.30
2019-05-01T07:11:25.970Z,29.47
2019-05-01T07:13:52.051Z,26.67
2019-05-01T07:16:19.037Z,27.40
2019-05-01T07:18:45.037Z,26.83
2019-05-01T07:21:11.007Z,29.03
2019-05-01T07:23:36.988Z,26.70
2019-05-01T07:26:02.979Z,27.63
2019-05-01T07:28:34.248Z,27.13
2019-05-01T07:31:00.619Z,25.70
2019-05-01T07:33:26.713Z,27.90
2019-05-01T07:35:54.024Z,25.17
2019-05-01T07:38:20.506Z,24.40
2019-05-01T07:40:47.002Z,25.10
2019-05-01T07:43:18.950Z,25.43
2019-05-01T07:45:57.142Z,23.50
2019-05-01T07:48:29.699Z,24.67
2019-05-01T07:50:56.224Z,22.50
2019-05-01T07:53:23.732Z,25.10
2019-05-01T07:55:52.686Z,22.20
2019-05-01T07:58:18.399Z,23.83
2019-05-01T08:01:00.339Z,23.70
2019-05-01T08:03:26.339Z,24.10
2019-05-01T08:05:52.423Z,23.53
2019-05-01T08:08:18.416Z,22.27
2019-05-01T08:10:44.413Z,21.27
2019-05-01T08:13:10.419Z,21.10
2019-05-01T08:15:36.406Z,21.70
2019-05-01T08:18:13.314Z,20.80
2019-05-01T08:20:41.340Z,19.57
2019-05-01T08:23:07.591Z,19.97
2019-05-01T08:25:34.429Z,19.30
2019-05-01T08:28:08.687Z,16.40
2019-05-01T08:30:36.705Z,15.80
2019-05-01T08:33:21.432Z,16.20
2019-05-01T08:35:47.592Z,16.90
2019-05-01T08:38:13.567Z,15.20
2019-05-01T08:40:39.558Z,17.40
2019-05-01T08:43:05.596Z,17.90
2019-05-01T08:45:40.750Z,17.27
2019-05-01T08:48:05.998Z,18.60
2019-05-01T08:50:31.971Z,19.10
2019-05-01T08:52:58.253Z,17.97
2019-05-01T08:55:24.276Z,17.83
2019-05-01T08:57:50.587Z,17.60
2019-05-01T09:00:17.007Z,16.43
2019-05-01T09:02:43.860Z,16.87
2019-05-01T09:05:27.676Z,15.43
2019-05-01T09:07:38.147Z,14.40
2019-05-01T09:10:04.823Z,15.80
2019-05-01T09:12:30.847Z,12.90
2019-05-01T09:14:56.982Z,14.17
2019-05-01T09:17:23.056Z,13.30
2019-05-01T09:19:49.289Z,10.80
2019-05-01T09:22:15.272Z,13.43
2019-05-01T09:24:41.560Z,12.67
2019-05-01T09:27:12.422Z,11.30
2019-05-01T09:29:40.550Z,12.13
2019-05-01T09:32:10.119Z,11.10
2019-05-01T09:34:34.719Z,11.57
2019-05-01T09:37:00.700Z,12.93
2019-05-01T09:39:27.056Z,10.20
2019-05-01T09:41:53.156Z,11.27
2019-05-01T09:44:19.134Z,10.90
2019-05-01T09:46:45.146Z,9.83
2019-05-01T09:49:14.219Z,10.37
2019-05-01T09:51:56.135Z,10.63
2019-05-01T09:54:24.051Z,10.50
2019-05-01T09:56:50.032Z,10.50
2019-05-01T09:59:17.729Z,10.77
2019-05-01T10:01:44.706Z,10.63
2019-05-01T10:04:10.731Z,11.13
2019-05-01T10:06:36.700Z,10.23
2019-05-01T10:09:05.628Z,10.30
2019-05-01T10:11:31.639Z,10.77
2019-05-01T10:13:58.382Z,10.17
2019-05-01T10:16:25.622Z,11.13
2019-05-01T10:18:52.171Z,8.33
2019-05-01T10:21:22.272Z,9.60
2019-05-01T10:23:47.168Z,10.57
2019-05-01T10:26:19.001Z,8.33
2019-05-01T10:28:49.961Z,7.97
2019-05-01T10:31:18.544Z,8.13
2019-05-01T10:33:48.944Z,7.70
2019-05-01T10:36:18.805Z,8.77
2019-05-01T10:38:46.758Z,9.13
2019-05-01T10:41:13.114Z,8.57
2019-05-01T10:43:39.162Z,8.00
2019-05-01T10:46:05.230Z,8.73
2019-05-01T10:48:31.205Z,9.30
2019-05-01T10:50:57.201Z,8.47
2019-05-01T10:53:23.230Z,7.90
2019-05-01T10:55:49.275Z,7.40
2019-05-01T10:58:18.268Z,8.93
2019-05-01T11:00:45.408Z,8.33
2019-05-01T11:03:11.442Z,8.97
2019-05-01T11:05:37.519Z,9.47
2019-05-01T11:08:03.683Z,8.83
2019-05-01T11:10:29.703Z,9.53
2019-05-01T11:12:55.662Z,10.30
2019-05-01T11:15:21.635Z,8.87
2019-05-01T11:17:48.700Z,11.60
2019-05-01T11:20:14.714Z,9.37
2019-05-01T11:22:40.695Z,10.63
2019-05-01T11:25:06.958Z,10.37
2019-05-01T11:27:32.980Z,9.37
2019-05-01T11:29:58.957Z,9.83
2019-05-01T11:32:29.671Z,10.03
2019-05-01T11:35:06.798Z,10.27
2019-05-01T11:37:51.766Z,9.60
2019-05-01T11:40:28.560Z,10.00
2019-05-01T11:42:55.088Z,9.80
2019-05-01T11:45:21.172Z,10.43
2019-05-01T11:47:47.169Z,10.90
2019-05-01T11:50:13.275Z,10.77
2019-05-01T11:52:39.620Z,10.20
2019-05-01T11:55:06.880Z,10.97
2019-05-01T11:57:33.038Z,10.50
2019-05-01T11:59:59.248Z,12.00
2019-05-01T12:02:25.223Z,11.30
2019-05-01T12:04:51.216Z,10.57
2019-05-01T12:07:17.231Z,11.03
2019-05-01T12:09:43.244Z,11.40
2019-05-01T12:12:11.169Z,11.40
2019-05-01T12:14:37.195Z,11.13
2019-05-01T12:17:10.756Z,9.70
2019-05-01T12:19:36.757Z,10.53
2019-05-01T12:22:02.799Z,11.10
2019-05-01T12:24:28.767Z,10.83
2019-05-01T12:26:54.788Z,11.83
2019-05-01T12:29:20.886Z,11.47
2019-05-01T12:31:46.966Z,11.80
2019-05-01T12:34:12.951Z,11.43
2019-05-01T12:36:40.628Z,11.63
2019-05-01T12:39:09.367Z,11.57
2019-05-01T12:41:37.732Z,12.00
2019-05-01T12:44:03.714Z,12.40
2019-05-01T12:46:34.134Z,12.27
2019-05-01T12:49:00.116Z,12.37
2019-05-01T12:51:26.279Z,11.80
2019-05-01T12:54:02.839Z,11.27
2019-05-01T12:56:30.761Z,10.90
2019-05-01T12:58:56.801Z,13.83
2019-05-01T13:01:22.787Z,10.80
2019-05-01T13:03:48.847Z,11.63
2019-05-01T13:06:14.884Z,10.50
2019-05-01T13:08:41.030Z,9.90
2019-05-01T13:11:07.609Z,9.67
2019-05-01T13:13:33.684Z,10.60
2019-05-01T13:15:59.792Z,9.87
2019-05-01T13:18:25.784Z,10.47
2019-05-01T13:20:51.822Z,10.10
2019-05-01T13:23:17.808Z,11.40
2019-05-01T13:25:44.364Z,11.60
2019-05-01T13:28:28.743Z,11.33
2019-05-01T13:30:59.503Z,10.63
2019-05-01T13:33:25.531Z,11.20
2019-05-01T13:35:51.740Z,11.57
2019-05-01T13:38:17.756Z,12.17
2019-05-01T13:40:43.787Z,11.57
2019-05-01T13:43:10.029Z,12.67
2019-05-01T13:45:36.135Z,12.10
2019-05-01T13:48:02.266Z,12.90
2019-05-01T13:50:28.450Z,13.07
2019-05-01T13:52:54.439Z,14.17
2019-05-01T13:55:22.500Z,13.33
2019-05-01T13:57:49.309Z,13.80
2019-05-01T14:00:16.380Z,13.60
2019-05-01T14:02:42.367Z,13.67
2019-05-01T14:05:08.977Z,14.53
2019-05-01T14:07:34.958Z,13.93
2019-05-01T14:10:00.987Z,13.83
2019-05-01T14:12:27.031Z,15.70
2019-05-01T14:14:53.139Z,16.00
2019-05-01T14:17:19.155Z,16.20
2019-05-01T14:19:47.176Z,15.77
2019-05-01T14:22:15.116Z,15.40
2019-05-01T14:24:43.176Z,16.60
2019-05-01T14:27:09.238Z,15.60
2019-05-01T14:29:35.347Z,15.43
2019-05-01T14:32:01.643Z,16.83
2019-05-01T14:34:27.689Z,15.47
2019-05-01T14:36:54.035Z,16.73
2019-05-01T14:39:20.008Z,18.53
2019-05-01T14:41:46.052Z,18.53
2019-05-01T14:44:12.070Z,17.20
2019-05-01T14:46:38.320Z,18.37
2019-05-01T14:49:05.261Z,18.40
2019-05-01T14:51:31.345Z,16.30
2019-05-01T14:53:57.313Z,17.00
2019-05-01T14:56:23.841Z,17.07
2019-05-01T14:58:49.871Z,18.07
2019-05-01T15:01:15.839Z,16.90
2019-05-01T15:03:41.841Z,17.17
2019-05-01T15:06:07.927Z,16.70
2019-05-01T15:08:35.066Z,16.00
2019-05-01T15:11:01.090Z,18.03
2019-05-01T15:13:45.184Z,15.40
2019-05-01T15:16:29.533Z,16.23
2019-05-01T15:19:09.229Z,17.17
2019-05-01T15:21:35.221Z,17.33
2019-05-01T15:24:01.335Z,15.80
2019-05-01T15:26:27.387Z,16.70
2019-05-01T15:28:53.452Z,15.53
2019-05-01T15:31:19.533Z,14.67
2019-05-01T15:33:45.543Z,16.60
2019-05-01T15:36:11.529Z,16.40
2019-05-01T15:38:37.550Z,16.40
2019-05-01T15:41:05.460Z,16.53
2019-05-01T15:43:33.346Z,14.87
2019-05-01T15:45:59.662Z,16.47
2019-05-01T15:48:25.888Z,15.77
2019-05-01T15:50:51.867Z,15.80
2019-05-01T15:53:18.074Z,15.17
2019-05-01T15:55:46.591Z,16.87
2019-05-01T15:58:12.724Z,16.07
2019-05-01T16:00:38.711Z,16.63
2019-05-01T16:03:04.685Z,15.53
2019-05-01T16:05:30.709Z,15.67
2019-05-01T16:08:08.975Z,17.37
2019-05-01T16:10:27.215Z,14.90
2019-05-01T16:13:03.903Z,16.27
2019-05-01T16:15:31.560Z,15.50
2019-05-01T16:17:57.831Z,15.67
2019-05-01T16:20:23.841Z,15.00
2019-05-01T16:22:49.811Z,15.80
2019-05-01T16:25:15.818Z,14.73
2019-05-01T16:27:41.840Z,15.03
2019-05-01T16:30:08.157Z,13.90
2019-05-01T16:32:34.322Z,15.77
2019-05-01T16:35:00.330Z,15.90
2019-05-01T16:37:26.317Z,14.97
2019-05-01T16:40:04.678Z,16.00
2019-05-01T16:42:32.561Z,14.33
2019-05-01T16:44:58.583Z,15.33
2019-05-01T16:47:24.558Z,12.77
2019-05-01T16:49:50.550Z,15.70
2019-05-01T16:52:18.524Z,17.17
2019-05-01T16:54:44.645Z,13.87
2019-05-01T16:57:12.391Z,15.63
2019-05-01T16:59:38.395Z,14.07
2019-05-01T17:02:06.411Z,14.60
2019-05-01T17:04:37.043Z,13.60
2019-05-01T17:07:08.141Z,14.50
2019-05-01T17:09:44.914Z,13.90
2019-05-01T17:12:11.749Z,15.20
2019-05-01T17:14:37.714Z,14.00
2019-05-01T17:17:05.596Z,14.13
2019-05-01T17:19:31.607Z,12.97
2019-05-01T17:21:57.599Z,13.13
2019-05-01T17:24:23.579Z,11.57
2019-05-01T17:26:49.587Z,14.57
2019-05-01T17:29:15.671Z,12.00
2019-05-01T17:31:41.689Z,13.47
2019-05-01T17:34:09.715Z,12.27
2019-05-01T17:36:35.631Z,11.83
2019-05-01T17:39:01.615Z,11.43
2019-05-01T17:41:28.675Z,13.80
2019-05-01T17:43:56.661Z,11.10
2019-05-01T17:46:22.784Z,11.60
2019-05-01T17:48:48.781Z,12.33
2019-05-01T17:51:14.793Z,12.90
2019-05-01T17:53:40.776Z,11.37
2019-05-01T17:56:10.143Z,9.90
2019-05-01T17:58:34.767Z,12.27
2019-05-01T18:01:19.158Z,10.10
2019-05-01T18:03:47.050Z,9.10
2019-05-01T18:06:14.950Z,11.30
2019-05-01T18:08:40.992Z,8.83
2019-05-01T18:11:09.381Z,9.23
2019-05-01T18:13:34.852Z,9.90
2019-05-01T18:16:01.079Z,8.10
2019-05-01T18:18:27.061Z,8.77
2019-05-01T18:20:53.247Z,8.80
2019-05-01T18:23:37.618Z,9.00
2019-05-01T18:26:08.735Z,10.30
2019-05-01T18:28:38.650Z,10.40
2019-05-01T18:31:06.726Z,10.83
2019-05-01T18:33:32.983Z,9.10
2019-05-01T18:35:59.460Z,8.23
2019-05-01T18:38:33.312Z,8.70
2019-05-01T18:41:07.318Z,9.93
2019-05-01T18:43:33.916Z,8.27
2019-05-01T18:46:00.056Z,8.63
2019-05-01T18:48:26.068Z,8.63
2019-05-01T18:50:54.952Z,7.97
2019-05-01T18:53:20.724Z,7.13
2019-05-01T18:55:46.823Z,7.00
2019-05-01T18:58:13.172Z,7.07
2019-05-01T19:00:39.313Z,6.60
2019-05-01T19:03:05.840Z,6.43
2019-05-01T19:05:31.819Z,6.77
2019-05-01T19:07:57.847Z,6.00
2019-05-01T19:10:23.897Z,7.13
2019-05-01T19:12:49.876Z,6.40
2019-05-01T19:15:16.109Z,6.93
2019-05-01T19:17:42.075Z,6.77
2019-05-01T19:20:08.315Z,6.87
2019-05-01T19:22:34.400Z,7.00
2019-05-01T19:25:00.783Z,5.93
2019-05-01T19:27:26.889Z,7.27
2019-05-01T19:29:52.939Z,6.83
2019-05-01T19:32:22.162Z,5.87
2019-05-01T19:34:48.281Z,8.00
2019-05-01T19:37:16.497Z,6.93
2019-05-01T19:39:44.118Z,7.80
2019-05-01T19:42:10.420Z,8.10
2019-05-01T19:44:36.763Z,8.47
2019-05-01T19:47:03.178Z,7.50
2019-05-01T19:49:30.650Z,7.87
2019-05-01T19:52:00.585Z,8.17
2019-05-01T19:54:28.047Z,7.77
2019-05-01T19:56:53.664Z,8.80
2019-05-01T19:59:19.733Z,7.23
2019-05-01T20:01:49.234Z,7.90
2019-05-01T20:04:15.132Z,8.97
2019-05-01T20:06:42.214Z,8.00
2019-05-01T20:09:08.369Z,7.83
2019-05-01T20:11:34.720Z,8.90
2019-05-01T20:14:00.827Z,7.83
2019-05-01T20:16:26.875Z,9.27
2019-05-01T20:18:52.958Z,8.40
2019-05-01T20:21:18.977Z,9.27
2019-05-01T20:23:45.112Z,8.80
2019-05-01T20:26:11.316Z,9.13
2019-05-01T20:28:37.525Z,9.83
2019-05-01T20:31:03.655Z,10.47
2019-05-01T20:33:33.383Z,9.83
2019-05-01T20:36:00.402Z,10.80
2019-05-01T20:38:25.536Z,9.40
2019-05-01T20:40:51.533Z,10.47
2019-05-01T20:43:17.505Z,10.40
2019-05-01T20:45:44.903Z,8.93
2019-05-01T20:48:11.706Z,8.80
2019-05-01T20:50:37.707Z,9.23
2019-05-01T20:53:03.791Z,9.70
2019-05-01T20:55:29.796Z,10.00
2019-05-01T20:58:14.124Z,8.07
2019-05-01T21:00:40.706Z,9.37
2019-05-01T21:03:06.725Z,9.27
2019-05-01T21:05:40.531Z,9.00
2019-05-01T21:08:08.407Z,9.20
2019-05-01T21:10:50.676Z,9.60
2019-05-01T21:13:13.054Z,8.67
2019-05-01T21:15:39.043Z,8.33
2019-05-01T21:18:05.087Z,9.10
2019-05-01T21:20:31.292Z,9.10
2019-05-01T21:22:57.299Z,9.37
2019-05-01T21:25:23.996Z,8.23
2019-05-01T21:27:54.112Z,8.67
2019-05-01T21:30:20.248Z,8.30
2019-05-01T21:32:46.236Z,10.07
2019-05-01T21:35:13.729Z,9.90
2019-05-01T21:37:40.115Z,8.73
2019-05-01T21:40:07.023Z,10.70
2019-05-01T21:42:33.012Z,9.87
2019-05-01T21:44:58.999Z,9.80
2019-05-01T21:47:26.916Z,11.10
2019-05-01T21:49:53.030Z,9.87
2019-05-01T21:52:25.108Z,9.10
2019-05-01T21:54:50.149Z,9.03
2019-05-01T21:57:17.392Z,11.90
2019-05-01T21:59:44.715Z,9.40
2019-05-01T22:02:11.992Z,10.10
2019-05-01T22:04:38.182Z,8.93
2019-05-01T22:07:06.203Z,9.70
2019-05-01T22:09:32.519Z,9.53
2019-05-01T22:11:58.601Z,9.20
2019-05-01T22:14:42.767Z,8.80
2019-05-01T22:17:10.788Z,9.80
2019-05-01T22:19:36.846Z,8.73
2019-05-01T22:22:08.096Z,9.10
2019-05-01T22:24:45.041Z,9.73
2019-05-01T22:27:12.977Z,9.20
2019-05-01T22:29:41.057Z,9.53
2019-05-01T22:32:08.996Z,9.70
2019-05-01T22:34:36.870Z,9.33
2019-05-01T22:37:02.878Z,8.70
2019-05-01T22:39:30.774Z,9.50
2019-05-01T22:41:56.777Z,9.37
2019-05-01T22:44:22.874Z,9.73
2019-05-01T22:46:48.888Z,9.50
2019-05-01T22:49:14.863Z,11.47
2019-05-01T22:51:40.879Z,9.30
2019-05-01T22:54:06.839Z,9.30
2019-05-01T22:56:32.844Z,9.57
2019-05-01T22:58:58.936Z,9.53
2019-05-01T23:01:25.567Z,10.10
2019-05-01T23:03:56.462Z,10.70
2019-05-01T23:06:22.672Z,10.20
2019-05-01T23:08:48.664Z,9.30
2019-05-01T23:11:20.169Z,9.07
2019-05-01T23:13:43.184Z,8.93
2019-05-01T23:16:09.255Z,9.00
2019-05-01T23:18:35.258Z,10.10
2019-05-01T23:21:01.569Z,9.63
2019-05-01T23:23:27.842Z,9.07
2019-05-01T23:25:53.810Z,8.77
2019-05-01T23:28:19.822Z,9.10
2019-05-01T23:30:46.078Z,9.00
2019-05-01T23:33:12.040Z,8.60
2019-05-01T23:35:38.062Z,8.90
2019-05-01T23:38:04.039Z,8.70
2019-05-01T23:40:30.335Z,8.90
2019-05-01T23:42:56.337Z,9.30
2019-05-01T23:45:22.306Z,9.13
2019-05-01T23:47:48.472Z,9.00
2019-05-01T23:50:14.622Z,9.10
2019-05-01T23:52:40.631Z,9.77
2019-05-01T23:55:06.835Z,9.00
2019-05-01T23:57:33.051Z,9.80
2019-05-01T23:59:59.357Z,9.70
